sensor_id;sensor_type;location;lat;lon;timestamp;P1;durP1;ratioP1;P2;durP2;ratioP2
13228;SDS011;6680;53.220;10.402;2022-08-19T00:00:04;8.67;;;6.03;;
13228;SDS011;6680;53.220;10.402;2022-08-19T00:02:34;7.23;;;5.90;;
13228;SDS011;6680;53.220;10.402;2022-08-19T00:05:01;8.27;;;5.87;;
13228;SDS011;6680;53.220;10.402;2022-08-19T00:07:28;7.50;;;5.93;;
13228;SDS011;6680;53.220;10.402;2022-08-19T00:09:55;9.37;;;6.50;;
13228;SDS011;6680;53.220;10.402;2022-08-19T00:12:21;9.77;;;6.80;;
13228;SDS011;6680;53.220;10.402;2022-08-19T00:14:48;7.17;;;5.90;;
13228;SDS011;6680;53.220;10.402;2022-08-19T00:17:14;8.83;;;5.73;;
13228;SDS011;6680;53.220;10.402;2022-08-19T00:19:42;11.43;;;6.00;;
13228;SDS011;6680;53.220;10.402;2022-08-19T00:22:09;10.53;;;6.10;;
13228;SDS011;6680;53.220;10.402;2022-08-19T00:24:36;7.50;;;5.67;;
13228;SDS011;6680;53.220;10.402;2022-08-19T00:27:03;10.43;;;5.90;;
13228;SDS011;6680;53.220;10.402;2022-08-19T00:29:30;8.93;;;5.63;;
13228;SDS011;6680;53.220;10.402;2022-08-19T00:31:57;9.33;;;5.80;;
13228;SDS011;6680;53.220;10.402;2022-08-19T00:34:24;7.37;;;5.70;;
13228;SDS011;6680;53.220;10.402;2022-08-19T00:36:54;7.53;;;5.50;;
13228;SDS011;6680;53.220;10.402;2022-08-19T00:39:21;6.57;;;5.23;;
13228;SDS011;6680;53.220;10.402;2022-08-19T00:41:48;7.43;;;5.40;;
13228;SDS011;6680;53.220;10.402;2022-08-19T00:44:17;5.70;;;5.10;;
13228;SDS011;6680;53.220;10.402;2022-08-19T00:46:46;6.57;;;5.50;;
13228;SDS011;6680;53.220;10.402;2022-08-19T00:49:14;8.50;;;5.93;;
13228;SDS011;6680;53.220;10.402;2022-08-19T00:51:45;6.63;;;5.63;;
13228;SDS011;6680;53.220;10.402;2022-08-19T00:54:16;6.30;;;4.83;;
13228;SDS011;6680;53.220;10.402;2022-08-19T00:56:44;6.60;;;5.70;;
13228;SDS011;6680;53.220;10.402;2022-08-19T00:59:11;6.40;;;5.43;;
13228;SDS011;6680;53.220;10.402;2022-08-19T01:01:40;7.03;;;4.97;;
13228;SDS011;6680;53.220;10.402;2022-08-19T01:04:09;7.43;;;6.00;;
13228;SDS011;6680;53.220;10.402;2022-08-19T01:06:36;8.77;;;5.40;;
13228;SDS011;6680;53.220;10.402;2022-08-19T01:09:04;8.23;;;5.97;;
13228;SDS011;6680;53.220;10.402;2022-08-19T01:11:33;6.27;;;5.40;;
13228;SDS011;6680;53.220;10.402;2022-08-19T01:14:02;9.37;;;6.20;;
13228;SDS011;6680;53.220;10.402;2022-08-19T01:16:30;11.97;;;6.00;;
13228;SDS011;6680;53.220;10.402;2022-08-19T01:18:58;7.00;;;6.07;;
13228;SDS011;6680;53.220;10.402;2022-08-19T01:21:26;5.80;;;5.20;;
13228;SDS011;6680;53.220;10.402;2022-08-19T01:23:58;10.47;;;5.20;;
13228;SDS011;6680;53.220;10.402;2022-08-19T01:26:25;7.60;;;5.30;;
13228;SDS011;6680;53.220;10.402;2022-08-19T01:28:53;8.23;;;6.00;;
13228;SDS011;6680;53.220;10.402;2022-08-19T01:31:22;9.67;;;5.63;;
13228;SDS011;6680;53.220;10.402;2022-08-19T01:33:51;8.13;;;5.50;;
13228;SDS011;6680;53.220;10.402;2022-08-19T01:36:21;8.37;;;5.43;;
13228;SDS011;6680;53.220;10.402;2022-08-19T01:38:50;6.87;;;5.00;;
13228;SDS011;6680;53.220;10.402;2022-08-19T01:41:18;8.23;;;5.20;;
13228;SDS011;6680;53.220;10.402;2022-08-19T01:43:47;7.20;;;5.77;;
13228;SDS011;6680;53.220;10.402;2022-08-19T01:46:14;7.83;;;6.17;;
13228;SDS011;6680;53.220;10.402;2022-08-19T01:48:41;6.33;;;5.57;;
13228;SDS011;6680;53.220;10.402;2022-08-19T01:51:09;7.83;;;5.80;;
13228;SDS011;6680;53.220;10.402;2022-08-19T01:53:37;7.70;;;6.70;;
13228;SDS011;6680;53.220;10.402;2022-08-19T01:56:04;7.40;;;5.40;;
13228;SDS011;6680;53.220;10.402;2022-08-19T01:58:34;7.57;;;6.53;;
13228;SDS011;6680;53.220;10.402;2022-08-19T02:01:04;8.43;;;5.73;;
13228;SDS011;6680;53.220;10.402;2022-08-19T02:03:32;9.07;;;6.23;;
13228;SDS011;6680;53.220;10.402;2022-08-19T02:06:00;6.47;;;5.43;;
13228;SDS011;6680;53.220;10.402;2022-08-19T02:08:30;9.60;;;6.00;;
13228;SDS011;6680;53.220;10.402;2022-08-19T02:10:58;8.13;;;6.47;;
13228;SDS011;6680;53.220;10.402;2022-08-19T02:13:25;8.17;;;6.27;;
13228;SDS011;6680;53.220;10.402;2022-08-19T02:15:55;8.57;;;6.10;;
13228;SDS011;6680;53.220;10.402;2022-08-19T02:18:22;10.07;;;5.97;;
13228;SDS011;6680;53.220;10.402;2022-08-19T02:20:49;7.37;;;5.93;;
13228;SDS011;6680;53.220;10.402;2022-08-19T02:23:16;7.63;;;5.30;;
13228;SDS011;6680;53.220;10.402;2022-08-19T02:25:43;6.27;;;5.50;;
13228;SDS011;6680;53.220;10.402;2022-08-19T02:28:11;9.97;;;6.00;;
13228;SDS011;6680;53.220;10.402;2022-08-19T02:30:38;8.27;;;5.30;;
13228;SDS011;6680;53.220;10.402;2022-08-19T02:33:08;6.03;;;5.03;;
13228;SDS011;6680;53.220;10.402;2022-08-19T02:35:35;6.87;;;5.50;;
13228;SDS011;6680;53.220;10.402;2022-08-19T02:38:02;7.00;;;4.93;;
13228;SDS011;6680;53.220;10.402;2022-08-19T02:40:49;7.93;;;5.27;;
13228;SDS011;6680;53.220;10.402;2022-08-19T02:43:17;5.90;;;4.90;;
13228;SDS011;6680;53.220;10.402;2022-08-19T02:45:46;6.37;;;5.60;;
13228;SDS011;6680;53.220;10.402;2022-08-19T02:48:15;6.70;;;4.80;;
13228;SDS011;6680;53.220;10.402;2022-08-19T02:50:43;7.70;;;6.03;;
13228;SDS011;6680;53.220;10.402;2022-08-19T02:53:10;6.43;;;4.83;;
13228;SDS011;6680;53.220;10.402;2022-08-19T02:55:42;7.77;;;5.57;;
13228;SDS011;6680;53.220;10.402;2022-08-19T02:58:10;11.40;;;5.90;;
13228;SDS011;6680;53.220;10.402;2022-08-19T03:00:40;7.17;;;4.80;;
13228;SDS011;6680;53.220;10.402;2022-08-19T03:03:08;8.87;;;5.43;;
13228;SDS011;6680;53.220;10.402;2022-08-19T03:05:37;7.60;;;5.57;;
13228;SDS011;6680;53.220;10.402;2022-08-19T03:08:04;5.93;;;5.23;;
13228;SDS011;6680;53.220;10.402;2022-08-19T03:10:31;10.67;;;5.50;;
13228;SDS011;6680;53.220;10.402;2022-08-19T03:12:58;7.93;;;5.30;;
13228;SDS011;6680;53.220;10.402;2022-08-19T03:15:24;8.47;;;5.60;;
13228;SDS011;6680;53.220;10.402;2022-08-19T03:17:51;6.90;;;5.23;;
13228;SDS011;6680;53.220;10.402;2022-08-19T03:20:19;8.53;;;6.07;;
13228;SDS011;6680;53.220;10.402;2022-08-19T03:22:47;9.60;;;5.63;;
13228;SDS011;6680;53.220;10.402;2022-08-19T03:25:14;8.57;;;5.40;;
13228;SDS011;6680;53.220;10.402;2022-08-19T03:27:41;8.63;;;6.37;;
13228;SDS011;6680;53.220;10.402;2022-08-19T03:30:09;8.03;;;6.07;;
13228;SDS011;6680;53.220;10.402;2022-08-19T03:32:36;10.73;;;6.47;;
13228;SDS011;6680;53.220;10.402;2022-08-19T03:35:03;10.10;;;5.87;;
13228;SDS011;6680;53.220;10.402;2022-08-19T03:37:30;8.47;;;5.83;;
13228;SDS011;6680;53.220;10.402;2022-08-19T03:39:58;9.97;;;6.57;;
13228;SDS011;6680;53.220;10.402;2022-08-19T03:42:28;8.70;;;5.93;;
13228;SDS011;6680;53.220;10.402;2022-08-19T03:44:55;12.03;;;6.33;;
13228;SDS011;6680;53.220;10.402;2022-08-19T03:47:23;9.13;;;5.80;;
13228;SDS011;6680;53.220;10.402;2022-08-19T03:49:50;7.83;;;5.50;;
13228;SDS011;6680;53.220;10.402;2022-08-19T03:52:17;12.53;;;6.70;;
13228;SDS011;6680;53.220;10.402;2022-08-19T03:54:44;11.17;;;5.83;;
13228;SDS011;6680;53.220;10.402;2022-08-19T03:57:12;9.73;;;6.60;;
13228;SDS011;6680;53.220;10.402;2022-08-19T03:59:39;7.67;;;5.77;;
13228;SDS011;6680;53.220;10.402;2022-08-19T04:02:06;9.53;;;6.20;;
13228;SDS011;6680;53.220;10.402;2022-08-19T04:04:35;9.50;;;6.10;;
13228;SDS011;6680;53.220;10.402;2022-08-19T04:07:03;9.00;;;5.87;;
13228;SDS011;6680;53.220;10.402;2022-08-19T04:09:30;9.90;;;5.87;;
13228;SDS011;6680;53.220;10.402;2022-08-19T04:11:56;8.93;;;6.10;;
13228;SDS011;6680;53.220;10.402;2022-08-19T04:14:25;8.70;;;6.20;;
13228;SDS011;6680;53.220;10.402;2022-08-19T04:16:55;11.37;;;6.67;;
13228;SDS011;6680;53.220;10.402;2022-08-19T04:19:22;7.57;;;5.90;;
13228;SDS011;6680;53.220;10.402;2022-08-19T04:21:50;8.10;;;5.00;;
13228;SDS011;6680;53.220;10.402;2022-08-19T04:24:19;8.50;;;6.00;;
13228;SDS011;6680;53.220;10.402;2022-08-19T04:26:46;8.00;;;5.57;;
13228;SDS011;6680;53.220;10.402;2022-08-19T04:29:14;6.37;;;5.20;;
13228;SDS011;6680;53.220;10.402;2022-08-19T04:31:44;6.63;;;5.70;;
13228;SDS011;6680;53.220;10.402;2022-08-19T04:34:12;11.07;;;5.50;;
13228;SDS011;6680;53.220;10.402;2022-08-19T04:36:41;7.30;;;5.23;;
13228;SDS011;6680;53.220;10.402;2022-08-19T04:39:10;7.73;;;5.43;;
13228;SDS011;6680;53.220;10.402;2022-08-19T04:41:39;10.47;;;6.80;;
13228;SDS011;6680;53.220;10.402;2022-08-19T04:44:24;9.13;;;6.13;;
13228;SDS011;6680;53.220;10.402;2022-08-19T04:46:52;7.60;;;4.73;;
13228;SDS011;6680;53.220;10.402;2022-08-19T04:49:20;10.13;;;6.83;;
13228;SDS011;6680;53.220;10.402;2022-08-19T04:51:48;12.27;;;6.73;;
13228;SDS011;6680;53.220;10.402;2022-08-19T04:54:15;12.13;;;7.17;;
13228;SDS011;6680;53.220;10.402;2022-08-19T04:56:42;11.23;;;6.97;;
13228;SDS011;6680;53.220;10.402;2022-08-19T04:59:09;10.20;;;6.00;;
13228;SDS011;6680;53.220;10.402;2022-08-19T05:01:36;12.03;;;7.03;;
13228;SDS011;6680;53.220;10.402;2022-08-19T05:04:05;11.70;;;6.97;;
13228;SDS011;6680;53.220;10.402;2022-08-19T05:06:33;11.27;;;7.20;;
13228;SDS011;6680;53.220;10.402;2022-08-19T05:09:00;11.70;;;6.97;;
13228;SDS011;6680;53.220;10.402;2022-08-19T05:11:31;13.10;;;7.27;;
13228;SDS011;6680;53.220;10.402;2022-08-19T05:14:00;14.23;;;7.37;;
13228;SDS011;6680;53.220;10.402;2022-08-19T05:16:27;11.33;;;7.33;;
13228;SDS011;6680;53.220;10.402;2022-08-19T05:18:54;10.97;;;7.37;;
13228;SDS011;6680;53.220;10.402;2022-08-19T05:21:40;11.33;;;7.20;;
13228;SDS011;6680;53.220;10.402;2022-08-19T05:24:26;8.77;;;6.27;;
13228;SDS011;6680;53.220;10.402;2022-08-19T05:26:53;11.80;;;7.30;;
13228;SDS011;6680;53.220;10.402;2022-08-19T05:29:24;10.60;;;6.43;;
13228;SDS011;6680;53.220;10.402;2022-08-19T05:31:52;9.00;;;6.77;;
13228;SDS011;6680;53.220;10.402;2022-08-19T05:34:20;11.53;;;6.77;;
13228;SDS011;6680;53.220;10.402;2022-08-19T05:36:51;10.53;;;7.00;;
13228;SDS011;6680;53.220;10.402;2022-08-19T05:39:21;11.00;;;6.67;;
13228;SDS011;6680;53.220;10.402;2022-08-19T05:41:49;11.37;;;6.87;;
13228;SDS011;6680;53.220;10.402;2022-08-19T05:44:19;8.73;;;6.10;;
13228;SDS011;6680;53.220;10.402;2022-08-19T05:46:46;10.83;;;7.30;;
13228;SDS011;6680;53.220;10.402;2022-08-19T05:49:13;10.50;;;6.43;;
13228;SDS011;6680;53.220;10.402;2022-08-19T05:51:40;16.50;;;8.00;;
13228;SDS011;6680;53.220;10.402;2022-08-19T05:54:09;12.07;;;6.87;;
13228;SDS011;6680;53.220;10.402;2022-08-19T05:56:38;11.73;;;7.53;;
13228;SDS011;6680;53.220;10.402;2022-08-19T05:59:06;10.27;;;6.43;;
13228;SDS011;6680;53.220;10.402;2022-08-19T06:01:34;13.43;;;8.70;;
13228;SDS011;6680;53.220;10.402;2022-08-19T06:04:02;10.93;;;7.33;;
13228;SDS011;6680;53.220;10.402;2022-08-19T06:06:29;10.73;;;7.53;;
13228;SDS011;6680;53.220;10.402;2022-08-19T06:08:56;11.23;;;7.87;;
13228;SDS011;6680;53.220;10.402;2022-08-19T06:11:25;13.23;;;7.80;;
13228;SDS011;6680;53.220;10.402;2022-08-19T06:14:00;14.47;;;9.17;;
13228;SDS011;6680;53.220;10.402;2022-08-19T06:16:28;13.77;;;7.83;;
13228;SDS011;6680;53.220;10.402;2022-08-19T06:18:56;12.30;;;7.37;;
13228;SDS011;6680;53.220;10.402;2022-08-19T06:21:26;15.83;;;9.40;;
13228;SDS011;6680;53.220;10.402;2022-08-19T06:23:54;14.60;;;9.27;;
13228;SDS011;6680;53.220;10.402;2022-08-19T06:26:21;14.87;;;9.77;;
13228;SDS011;6680;53.220;10.402;2022-08-19T06:28:50;14.73;;;9.57;;
13228;SDS011;6680;53.220;10.402;2022-08-19T06:31:18;17.47;;;9.43;;
13228;SDS011;6680;53.220;10.402;2022-08-19T06:33:49;19.40;;;10.90;;
13228;SDS011;6680;53.220;10.402;2022-08-19T06:36:18;20.07;;;10.50;;
13228;SDS011;6680;53.220;10.402;2022-08-19T06:38:46;27.67;;;12.47;;
13228;SDS011;6680;53.220;10.402;2022-08-19T06:41:13;25.47;;;13.00;;
13228;SDS011;6680;53.220;10.402;2022-08-19T06:43:41;25.80;;;13.43;;
13228;SDS011;6680;53.220;10.402;2022-08-19T06:46:09;24.20;;;11.77;;
13228;SDS011;6680;53.220;10.402;2022-08-19T06:48:37;24.60;;;13.07;;
13228;SDS011;6680;53.220;10.402;2022-08-19T06:51:04;23.67;;;12.57;;
13228;SDS011;6680;53.220;10.402;2022-08-19T06:53:31;27.27;;;12.87;;
13228;SDS011;6680;53.220;10.402;2022-08-19T06:55:58;28.83;;;12.83;;
13228;SDS011;6680;53.220;10.402;2022-08-19T06:58:27;23.93;;;12.13;;
13228;SDS011;6680;53.220;10.402;2022-08-19T07:00:58;26.20;;;13.43;;
13228;SDS011;6680;53.220;10.402;2022-08-19T07:03:27;24.47;;;12.67;;
13228;SDS011;6680;53.220;10.402;2022-08-19T07:05:55;21.90;;;11.80;;
13228;SDS011;6680;53.220;10.402;2022-08-19T07:08:22;22.53;;;12.67;;
13228;SDS011;6680;53.220;10.402;2022-08-19T07:10:49;23.13;;;13.90;;
13228;SDS011;6680;53.220;10.402;2022-08-19T07:13:16;23.07;;;12.70;;
13228;SDS011;6680;53.220;10.402;2022-08-19T07:15:42;29.80;;;15.13;;
13228;SDS011;6680;53.220;10.402;2022-08-19T07:18:12;27.93;;;13.17;;
13228;SDS011;6680;53.220;10.402;2022-08-19T07:20:39;21.80;;;12.30;;
13228;SDS011;6680;53.220;10.402;2022-08-19T07:23:06;22.43;;;13.23;;
13228;SDS011;6680;53.220;10.402;2022-08-19T07:25:33;27.70;;;13.83;;
13228;SDS011;6680;53.220;10.402;2022-08-19T07:28:01;25.30;;;13.40;;
13228;SDS011;6680;53.220;10.402;2022-08-19T07:30:29;24.53;;;12.63;;
13228;SDS011;6680;53.220;10.402;2022-08-19T07:32:56;18.33;;;11.13;;
13228;SDS011;6680;53.220;10.402;2022-08-19T07:35:24;18.33;;;11.33;;
13228;SDS011;6680;53.220;10.402;2022-08-19T07:37:51;21.63;;;12.60;;
13228;SDS011;6680;53.220;10.402;2022-08-19T07:40:17;24.33;;;12.20;;
13228;SDS011;6680;53.220;10.402;2022-08-19T07:42:44;24.50;;;12.80;;
13228;SDS011;6680;53.220;10.402;2022-08-19T07:45:11;29.03;;;14.70;;
13228;SDS011;6680;53.220;10.402;2022-08-19T07:47:38;21.00;;;13.13;;
13228;SDS011;6680;53.220;10.402;2022-08-19T07:50:07;27.13;;;14.47;;
13228;SDS011;6680;53.220;10.402;2022-08-19T07:52:38;26.17;;;14.43;;
13228;SDS011;6680;53.220;10.402;2022-08-19T07:55:05;30.67;;;15.47;;
13228;SDS011;6680;53.220;10.402;2022-08-19T07:57:33;28.47;;;14.90;;
13228;SDS011;6680;53.220;10.402;2022-08-19T08:00:00;27.67;;;15.63;;
13228;SDS011;6680;53.220;10.402;2022-08-19T08:02:29;28.27;;;14.17;;
13228;SDS011;6680;53.220;10.402;2022-08-19T08:04:55;32.90;;;15.63;;
13228;SDS011;6680;53.220;10.402;2022-08-19T08:07:41;33.00;;;15.60;;
13228;SDS011;6680;53.220;10.402;2022-08-19T08:10:40;30.77;;;15.97;;
13228;SDS011;6680;53.220;10.402;2022-08-19T08:13:06;32.03;;;14.60;;
13228;SDS011;6680;53.220;10.402;2022-08-19T08:15:33;34.47;;;16.17;;
13228;SDS011;6680;53.220;10.402;2022-08-19T08:18:02;28.83;;;14.07;;
13228;SDS011;6680;53.220;10.402;2022-08-19T08:20:29;30.27;;;15.40;;
13228;SDS011;6680;53.220;10.402;2022-08-19T08:22:57;31.70;;;15.37;;
13228;SDS011;6680;53.220;10.402;2022-08-19T08:25:41;33.87;;;16.93;;
13228;SDS011;6680;53.220;10.402;2022-08-19T08:28:07;32.80;;;16.47;;
13228;SDS011;6680;53.220;10.402;2022-08-19T08:30:35;32.60;;;15.97;;
13228;SDS011;6680;53.220;10.402;2022-08-19T08:33:02;32.20;;;17.17;;
13228;SDS011;6680;53.220;10.402;2022-08-19T08:35:30;32.47;;;16.00;;
13228;SDS011;6680;53.220;10.402;2022-08-19T08:37:58;35.50;;;17.87;;
13228;SDS011;6680;53.220;10.402;2022-08-19T08:40:26;35.23;;;15.60;;
13228;SDS011;6680;53.220;10.402;2022-08-19T08:42:55;35.23;;;16.80;;
13228;SDS011;6680;53.220;10.402;2022-08-19T08:45:27;37.17;;;16.77;;
13228;SDS011;6680;53.220;10.402;2022-08-19T08:47:56;28.43;;;14.67;;
13228;SDS011;6680;53.220;10.402;2022-08-19T08:50:29;27.23;;;15.30;;
13228;SDS011;6680;53.220;10.402;2022-08-19T08:53:10;31.63;;;15.00;;
13228;SDS011;6680;53.220;10.402;2022-08-19T08:55:39;24.63;;;14.50;;
13228;SDS011;6680;53.220;10.402;2022-08-19T08:58:09;31.23;;;15.20;;
13228;SDS011;6680;53.220;10.402;2022-08-19T09:00:43;33.60;;;16.17;;
13228;SDS011;6680;53.220;10.402;2022-08-19T09:03:14;37.23;;;15.83;;
13228;SDS011;6680;53.220;10.402;2022-08-19T09:05:45;26.90;;;13.33;;
13228;SDS011;6680;53.220;10.402;2022-08-19T09:08:26;36.47;;;15.77;;
13228;SDS011;6680;53.220;10.402;2022-08-19T09:11:04;29.60;;;14.47;;
13228;SDS011;6680;53.220;10.402;2022-08-19T09:13:34;31.87;;;14.17;;
13228;SDS011;6680;53.220;10.402;2022-08-19T09:16:10;36.00;;;15.17;;
13228;SDS011;6680;53.220;10.402;2022-08-19T09:18:39;29.00;;;14.63;;
13228;SDS011;6680;53.220;10.402;2022-08-19T09:21:07;32.07;;;14.80;;
13228;SDS011;6680;53.220;10.402;2022-08-19T09:23:35;31.03;;;15.23;;
13228;SDS011;6680;53.220;10.402;2022-08-19T09:26:06;30.33;;;13.83;;
13228;SDS011;6680;53.220;10.402;2022-08-19T09:28:34;29.30;;;12.87;;
13228;SDS011;6680;53.220;10.402;2022-08-19T09:31:01;26.60;;;13.67;;
13228;SDS011;6680;53.220;10.402;2022-08-19T09:33:28;24.03;;;12.73;;
13228;SDS011;6680;53.220;10.402;2022-08-19T09:36:01;20.17;;;11.93;;
13228;SDS011;6680;53.220;10.402;2022-08-19T09:38:29;31.77;;;14.13;;
13228;SDS011;6680;53.220;10.402;2022-08-19T09:41:01;24.00;;;12.43;;
13228;SDS011;6680;53.220;10.402;2022-08-19T09:43:29;29.57;;;13.00;;
13228;SDS011;6680;53.220;10.402;2022-08-19T09:45:56;22.07;;;13.23;;
13228;SDS011;6680;53.220;10.402;2022-08-19T09:48:23;23.70;;;12.73;;
13228;SDS011;6680;53.220;10.402;2022-08-19T09:50:50;26.10;;;13.57;;
13228;SDS011;6680;53.220;10.402;2022-08-19T09:53:17;24.97;;;12.20;;
13228;SDS011;6680;53.220;10.402;2022-08-19T09:55:44;22.70;;;12.03;;
13228;SDS011;6680;53.220;10.402;2022-08-19T09:58:12;24.63;;;11.77;;
13228;SDS011;6680;53.220;10.402;2022-08-19T10:00:38;23.23;;;11.60;;
13228;SDS011;6680;53.220;10.402;2022-08-19T10:03:05;23.43;;;11.47;;
13228;SDS011;6680;53.220;10.402;2022-08-19T10:05:32;24.20;;;11.60;;
13228;SDS011;6680;53.220;10.402;2022-08-19T10:08:13;25.50;;;11.90;;
13228;SDS011;6680;53.220;10.402;2022-08-19T10:10:41;23.43;;;12.30;;
13228;SDS011;6680;53.220;10.402;2022-08-19T10:13:09;21.77;;;11.77;;
13228;SDS011;6680;53.220;10.402;2022-08-19T10:15:37;20.93;;;12.83;;
13228;SDS011;6680;53.220;10.402;2022-08-19T10:18:04;20.97;;;11.00;;
13228;SDS011;6680;53.220;10.402;2022-08-19T10:20:31;28.37;;;12.53;;
13228;SDS011;6680;53.220;10.402;2022-08-19T10:22:57;22.03;;;11.53;;
13228;SDS011;6680;53.220;10.402;2022-08-19T10:25:25;21.47;;;11.27;;
13228;SDS011;6680;53.220;10.402;2022-08-19T10:27:51;18.87;;;10.60;;
13228;SDS011;6680;53.220;10.402;2022-08-19T10:30:18;24.87;;;11.47;;
13228;SDS011;6680;53.220;10.402;2022-08-19T10:32:47;21.37;;;10.27;;
13228;SDS011;6680;53.220;10.402;2022-08-19T10:35:13;21.53;;;10.00;;
13228;SDS011;6680;53.220;10.402;2022-08-19T10:37:40;19.90;;;11.47;;
13228;SDS011;6680;53.220;10.402;2022-08-19T10:40:07;21.07;;;12.20;;
13228;SDS011;6680;53.220;10.402;2022-08-19T10:42:36;23.97;;;12.87;;
13228;SDS011;6680;53.220;10.402;2022-08-19T10:45:03;22.00;;;12.60;;
13228;SDS011;6680;53.220;10.402;2022-08-19T10:47:31;25.70;;;12.27;;
13228;SDS011;6680;53.220;10.402;2022-08-19T10:50:00;30.40;;;13.53;;
13228;SDS011;6680;53.220;10.402;2022-08-19T10:52:45;24.17;;;12.80;;
13228;SDS011;6680;53.220;10.402;2022-08-19T10:55:13;23.60;;;12.00;;
13228;SDS011;6680;53.220;10.402;2022-08-19T10:57:57;24.77;;;12.97;;
13228;SDS011;6680;53.220;10.402;2022-08-19T11:00:24;21.83;;;12.77;;
13228;SDS011;6680;53.220;10.402;2022-08-19T11:02:51;25.50;;;14.30;;
13228;SDS011;6680;53.220;10.402;2022-08-19T11:05:19;24.93;;;13.83;;
13228;SDS011;6680;53.220;10.402;2022-08-19T11:07:47;25.23;;;12.53;;
13228;SDS011;6680;53.220;10.402;2022-08-19T11:10:16;22.53;;;11.93;;
13228;SDS011;6680;53.220;10.402;2022-08-19T11:12:44;28.87;;;13.57;;
13228;SDS011;6680;53.220;10.402;2022-08-19T11:15:11;30.13;;;13.97;;
13228;SDS011;6680;53.220;10.402;2022-08-19T11:17:38;24.70;;;13.47;;
13228;SDS011;6680;53.220;10.402;2022-08-19T11:20:08;25.17;;;13.87;;
13228;SDS011;6680;53.220;10.402;2022-08-19T11:22:37;26.40;;;12.90;;
13228;SDS011;6680;53.220;10.402;2022-08-19T11:25:05;27.20;;;14.23;;
13228;SDS011;6680;53.220;10.402;2022-08-19T11:27:32;27.83;;;13.37;;
13228;SDS011;6680;53.220;10.402;2022-08-19T11:29:59;25.07;;;14.07;;
13228;SDS011;6680;53.220;10.402;2022-08-19T11:32:28;26.50;;;14.73;;
13228;SDS011;6680;53.220;10.402;2022-08-19T11:34:55;30.60;;;14.67;;
13228;SDS011;6680;53.220;10.402;2022-08-19T11:37:21;22.37;;;13.17;;
13228;SDS011;6680;53.220;10.402;2022-08-19T11:39:49;23.17;;;12.43;;
13228;SDS011;6680;53.220;10.402;2022-08-19T11:42:16;25.77;;;13.27;;
13228;SDS011;6680;53.220;10.402;2022-08-19T11:45:01;26.60;;;13.77;;
13228;SDS011;6680;53.220;10.402;2022-08-19T11:47:29;24.17;;;13.30;;
13228;SDS011;6680;53.220;10.402;2022-08-19T11:49:55;23.50;;;12.40;;
13228;SDS011;6680;53.220;10.402;2022-08-19T11:52:22;20.60;;;12.40;;
13228;SDS011;6680;53.220;10.402;2022-08-19T11:54:50;26.60;;;13.67;;
13228;SDS011;6680;53.220;10.402;2022-08-19T11:57:17;29.73;;;17.37;;
13228;SDS011;6680;53.220;10.402;2022-08-19T11:59:47;25.77;;;14.53;;
13228;SDS011;6680;53.220;10.402;2022-08-19T12:02:15;30.13;;;16.67;;
13228;SDS011;6680;53.220;10.402;2022-08-19T12:04:42;31.63;;;17.17;;
13228;SDS011;6680;53.220;10.402;2022-08-19T12:07:08;31.57;;;17.53;;
13228;SDS011;6680;53.220;10.402;2022-08-19T12:09:35;32.67;;;17.23;;
13228;SDS011;6680;53.220;10.402;2022-08-19T12:12:05;32.67;;;17.87;;
13228;SDS011;6680;53.220;10.402;2022-08-19T12:14:33;35.13;;;16.50;;
13228;SDS011;6680;53.220;10.402;2022-08-19T12:17:00;27.20;;;16.27;;
13228;SDS011;6680;53.220;10.402;2022-08-19T12:19:29;29.90;;;17.30;;
13228;SDS011;6680;53.220;10.402;2022-08-19T12:21:58;31.17;;;15.97;;
13228;SDS011;6680;53.220;10.402;2022-08-19T12:24:26;25.63;;;15.33;;
13228;SDS011;6680;53.220;10.402;2022-08-19T12:26:53;29.33;;;16.67;;
13228;SDS011;6680;53.220;10.402;2022-08-19T12:29:21;28.27;;;15.30;;
13228;SDS011;6680;53.220;10.402;2022-08-19T12:31:49;24.33;;;13.93;;
13228;SDS011;6680;53.220;10.402;2022-08-19T12:34:15;27.93;;;16.00;;
13228;SDS011;6680;53.220;10.402;2022-08-19T12:36:44;26.27;;;14.77;;
13228;SDS011;6680;53.220;10.402;2022-08-19T12:39:14;28.43;;;16.40;;
13228;SDS011;6680;53.220;10.402;2022-08-19T12:41:40;28.47;;;17.40;;
13228;SDS011;6680;53.220;10.402;2022-08-19T12:44:07;27.20;;;16.23;;
13228;SDS011;6680;53.220;10.402;2022-08-19T12:46:35;24.73;;;15.37;;
13228;SDS011;6680;53.220;10.402;2022-08-19T12:49:02;30.30;;;16.17;;
13228;SDS011;6680;53.220;10.402;2022-08-19T12:51:28;24.53;;;15.27;;
13228;SDS011;6680;53.220;10.402;2022-08-19T12:53:56;25.37;;;15.87;;
13228;SDS011;6680;53.220;10.402;2022-08-19T12:56:24;26.10;;;15.80;;
13228;SDS011;6680;53.220;10.402;2022-08-19T12:58:50;25.57;;;16.10;;
13228;SDS011;6680;53.220;10.402;2022-08-19T13:01:17;22.77;;;15.43;;
13228;SDS011;6680;53.220;10.402;2022-08-19T13:03:45;29.57;;;18.33;;
13228;SDS011;6680;53.220;10.402;2022-08-19T13:06:13;28.60;;;17.43;;
13228;SDS011;6680;53.220;10.402;2022-08-19T13:08:40;29.80;;;17.97;;
13228;SDS011;6680;53.220;10.402;2022-08-19T13:11:08;29.63;;;17.57;;
13228;SDS011;6680;53.220;10.402;2022-08-19T13:13:36;23.20;;;16.40;;
13228;SDS011;6680;53.220;10.402;2022-08-19T13:16:05;30.07;;;18.17;;
13228;SDS011;6680;53.220;10.402;2022-08-19T13:18:33;29.47;;;17.27;;
13228;SDS011;6680;53.220;10.402;2022-08-19T13:21:02;26.20;;;16.27;;
13228;SDS011;6680;53.220;10.402;2022-08-19T13:23:30;27.77;;;16.97;;
13228;SDS011;6680;53.220;10.402;2022-08-19T13:25:57;26.07;;;16.80;;
13228;SDS011;6680;53.220;10.402;2022-08-19T13:28:23;31.97;;;18.50;;
13228;SDS011;6680;53.220;10.402;2022-08-19T13:30:50;23.77;;;16.27;;
13228;SDS011;6680;53.220;10.402;2022-08-19T13:33:35;23.20;;;15.77;;
13228;SDS011;6680;53.220;10.402;2022-08-19T13:36:03;21.13;;;14.63;;
13228;SDS011;6680;53.220;10.402;2022-08-19T13:38:32;21.97;;;14.77;;
13228;SDS011;6680;53.220;10.402;2022-08-19T13:41:04;21.50;;;14.27;;
13228;SDS011;6680;53.220;10.402;2022-08-19T13:43:32;22.27;;;15.20;;
13228;SDS011;6680;53.220;10.402;2022-08-19T13:45:58;26.10;;;16.73;;
13228;SDS011;6680;53.220;10.402;2022-08-19T13:48:25;18.07;;;12.83;;
13228;SDS011;6680;53.220;10.402;2022-08-19T13:50:52;19.40;;;13.30;;
13228;SDS011;6680;53.220;10.402;2022-08-19T13:53:21;20.67;;;13.73;;
13228;SDS011;6680;53.220;10.402;2022-08-19T13:55:48;17.10;;;12.47;;
13228;SDS011;6680;53.220;10.402;2022-08-19T13:58:16;22.67;;;14.90;;
13228;SDS011;6680;53.220;10.402;2022-08-19T14:00:43;19.13;;;13.50;;
13228;SDS011;6680;53.220;10.402;2022-08-19T14:03:11;21.40;;;13.27;;
13228;SDS011;6680;53.220;10.402;2022-08-19T14:05:38;24.53;;;13.60;;
13228;SDS011;6680;53.220;10.402;2022-08-19T14:08:05;24.67;;;15.57;;
13228;SDS011;6680;53.220;10.402;2022-08-19T14:10:33;14.67;;;11.43;;
13228;SDS011;6680;53.220;10.402;2022-08-19T14:13:00;16.83;;;13.10;;
13228;SDS011;6680;53.220;10.402;2022-08-19T14:15:29;20.40;;;13.40;;
13228;SDS011;6680;53.220;10.402;2022-08-19T14:17:56;17.53;;;11.90;;
13228;SDS011;6680;53.220;10.402;2022-08-19T14:20:23;16.30;;;11.17;;
13228;SDS011;6680;53.220;10.402;2022-08-19T14:22:50;18.37;;;11.53;;
13228;SDS011;6680;53.220;10.402;2022-08-19T14:25:19;17.97;;;12.17;;
13228;SDS011;6680;53.220;10.402;2022-08-19T14:27:49;18.73;;;12.77;;
13228;SDS011;6680;53.220;10.402;2022-08-19T14:30:17;16.53;;;12.27;;
13228;SDS011;6680;53.220;10.402;2022-08-19T14:32:45;16.30;;;12.57;;
13228;SDS011;6680;53.220;10.402;2022-08-19T14:35:13;14.87;;;11.70;;
13228;SDS011;6680;53.220;10.402;2022-08-19T14:37:42;18.87;;;12.43;;